sensor_id;sensor_type;location;lat;lon;timestamp;P1;durP1;ratioP1;P2;durP2;ratioP2
46110;SDS011;31849;55.992;37.252;2023-03-01T00:01:00;2.77;;;0.80;;
46110;SDS011;31849;55.992;37.252;2023-03-01T00:06:05;3.83;;;0.70;;
46110;SDS011;31849;55.992;37.252;2023-03-01T00:11:11;1.70;;;0.60;;
46110;SDS011;31849;55.992;37.252;2023-03-01T00:16:18;3.57;;;0.70;;
46110;SDS011;31849;55.992;37.252;2023-03-01T00:21:23;3.03;;;0.70;;
46110;SDS011;31849;55.992;37.252;2023-03-01T00:26:28;2.95;;;0.70;;
46110;SDS011;31849;55.992;37.252;2023-03-01T00:31:32;2.40;;;0.67;;
46110;SDS011;31849;55.992;37.252;2023-03-01T00:36:36;3.30;;;0.70;;
46110;SDS011;31849;55.992;37.252;2023-03-01T00:41:41;1.95;;;1.00;;
46110;SDS011;31849;55.992;37.252;2023-03-01T00:46:46;2.07;;;0.67;;
46110;SDS011;31849;55.992;37.252;2023-03-01T00:51:49;4.93;;;0.80;;
46110;SDS011;31849;55.992;37.252;2023-03-01T00:56:54;2.03;;;0.70;;
46110;SDS011;31849;55.992;37.252;2023-03-01T01:01:57;3.63;;;0.97;;
46110;SDS011;31849;55.992;37.252;2023-03-01T01:07:01;1.60;;;0.50;;
46110;SDS011;31849;55.992;37.252;2023-03-01T01:12:06;2.47;;;0.70;;
46110;SDS011;31849;55.992;37.252;2023-03-01T01:17:10;2.60;;;0.60;;
46110;SDS011;31849;55.992;37.252;2023-03-01T01:22:14;2.33;;;0.73;;
46110;SDS011;31849;55.992;37.252;2023-03-01T01:27:19;3.10;;;0.90;;
46110;SDS011;31849;55.992;37.252;2023-03-01T01:32:22;2.87;;;0.87;;
46110;SDS011;31849;55.992;37.252;2023-03-01T01:37:27;4.33;;;1.63;;
46110;SDS011;31849;55.992;37.252;2023-03-01T01:42:36;2.30;;;0.70;;
46110;SDS011;31849;55.992;37.252;2023-03-01T01:47:39;2.43;;;0.90;;
46110;SDS011;31849;55.992;37.252;2023-03-01T01:52:43;1.20;;;0.53;;
46110;SDS011;31849;55.992;37.252;2023-03-01T01:57:50;4.40;;;0.57;;
46110;SDS011;31849;55.992;37.252;2023-03-01T02:02:56;2.47;;;0.70;;
46110;SDS011;31849;55.992;37.252;2023-03-01T02:08:02;1.90;;;0.70;;
46110;SDS011;31849;55.992;37.252;2023-03-01T02:13:07;3.33;;;0.70;;
46110;SDS011;31849;55.992;37.252;2023-03-01T02:18:12;3.47;;;0.70;;
46110;SDS011;31849;55.992;37.252;2023-03-01T02:23:20;1.53;;;0.70;;
46110;SDS011;31849;55.992;37.252;2023-03-01T02:28:27;2.30;;;0.70;;
46110;SDS011;31849;55.992;37.252;2023-03-01T02:33:34;3.67;;;0.80;;
46110;SDS011;31849;55.992;37.252;2023-03-01T02:38:39;2.43;;;0.63;;
46110;SDS011;31849;55.992;37.252;2023-03-01T02:43:44;3.85;;;0.90;;
46110;SDS011;31849;55.992;37.252;2023-03-01T02:48:49;3.13;;;0.70;;
46110;SDS011;31849;55.992;37.252;2023-03-01T02:53:56;3.83;;;0.90;;
46110;SDS011;31849;55.992;37.252;2023-03-01T02:59:12;4.27;;;1.00;;
46110;SDS011;31849;55.992;37.252;2023-03-01T03:04:16;2.67;;;0.80;;
46110;SDS011;31849;55.992;37.252;2023-03-01T03:09:22;3.63;;;0.70;;
46110;SDS011;31849;55.992;37.252;2023-03-01T03:14:27;2.23;;;0.53;;
46110;SDS011;31849;55.992;37.252;2023-03-01T03:19:31;1.87;;;0.80;;
46110;SDS011;31849;55.992;37.252;2023-03-01T03:24:34;2.93;;;1.07;;
46110;SDS011;31849;55.992;37.252;2023-03-01T03:29:41;4.67;;;0.80;;
46110;SDS011;31849;55.992;37.252;2023-03-01T03:34:44;3.73;;;0.80;;
46110;SDS011;31849;55.992;37.252;2023-03-01T03:39:48;2.97;;;0.63;;
46110;SDS011;31849;55.992;37.252;2023-03-01T03:44:52;2.23;;;0.87;;
46110;SDS011;31849;55.992;37.252;2023-03-01T03:49:56;2.30;;;0.60;;
46110;SDS011;31849;55.992;37.252;2023-03-01T03:54:59;5.47;;;0.80;;
46110;SDS011;31849;55.992;37.252;2023-03-01T04:00:05;5.13;;;1.30;;
46110;SDS011;31849;55.992;37.252;2023-03-01T04:05:15;3.00;;;0.80;;
46110;SDS011;31849;55.992;37.252;2023-03-01T04:10:20;4.10;;;1.03;;
46110;SDS011;31849;55.992;37.252;2023-03-01T04:15:25;2.43;;;0.70;;
46110;SDS011;31849;55.992;37.252;2023-03-01T04:20:29;2.20;;;0.90;;
46110;SDS011;31849;55.992;37.252;2023-03-01T04:25:37;5.50;;;0.77;;
46110;SDS011;31849;55.992;37.252;2023-03-01T04:30:42;3.33;;;0.90;;
46110;SDS011;31849;55.992;37.252;2023-03-01T04:35:45;2.73;;;0.90;;
46110;SDS011;31849;55.992;37.252;2023-03-01T04:40:51;3.73;;;1.00;;
46110;SDS011;31849;55.992;37.252;2023-03-01T04:45:55;2.93;;;0.83;;
46110;SDS011;31849;55.992;37.252;2023-03-01T04:51:04;3.67;;;0.90;;
46110;SDS011;31849;55.992;37.252;2023-03-01T05:01:14;5.73;;;1.13;;
46110;SDS011;31849;55.992;37.252;2023-03-01T05:06:19;1.77;;;0.77;;
46110;SDS011;31849;55.992;37.252;2023-03-01T05:11:23;2.70;;;0.90;;
46110;SDS011;31849;55.992;37.252;2023-03-01T05:16:28;3.30;;;1.10;;
46110;SDS011;31849;55.992;37.252;2023-03-01T05:21:36;4.70;;;1.30;;
46110;SDS011;31849;55.992;37.252;2023-03-01T05:27:00;3.10;;;0.90;;
46110;SDS011;31849;55.992;37.252;2023-03-01T05:32:06;2.55;;;1.00;;
46110;SDS011;31849;55.992;37.252;2023-03-01T05:37:10;3.85;;;1.00;;
46110;SDS011;31849;55.992;37.252;2023-03-01T05:42:14;5.30;;;1.25;;
46110;SDS011;31849;55.992;37.252;2023-03-01T05:47:19;5.13;;;1.10;;
46110;SDS011;31849;55.992;37.252;2023-03-01T05:52:22;3.78;;;1.00;;
46110;SDS011;31849;55.992;37.252;2023-03-01T05:57:27;5.25;;;1.20;;
46110;SDS011;31849;55.992;37.252;2023-03-01T06:02:32;6.05;;;1.50;;
46110;SDS011;31849;55.992;37.252;2023-03-01T06:07:36;4.03;;;1.25;;
46110;SDS011;31849;55.992;37.252;2023-03-01T06:12:40;4.40;;;1.20;;
46110;SDS011;31849;55.992;37.252;2023-03-01T06:22:50;4.80;;;1.20;;
46110;SDS011;31849;55.992;37.252;2023-03-01T06:27:53;3.60;;;0.90;;
46110;SDS011;31849;55.992;37.252;2023-03-01T06:32:59;4.13;;;1.27;;
46110;SDS011;31849;55.992;37.252;2023-03-01T06:38:03;5.32;;;1.30;;
46110;SDS011;31849;55.992;37.252;2023-03-01T06:43:07;5.22;;;1.40;;
46110;SDS011;31849;55.992;37.252;2023-03-01T06:48:13;6.15;;;1.73;;
46110;SDS011;31849;55.992;37.252;2023-03-01T06:53:16;4.10;;;1.50;;
46110;SDS011;31849;55.992;37.252;2023-03-01T06:58:20;4.68;;;1.73;;
46110;SDS011;31849;55.992;37.252;2023-03-01T07:03:24;4.30;;;1.95;;
46110;SDS011;31849;55.992;37.252;2023-03-01T07:13:31;4.53;;;1.90;;
46110;SDS011;31849;55.992;37.252;2023-03-01T07:18:36;5.60;;;1.92;;
46110;SDS011;31849;55.992;37.252;2023-03-01T07:23:40;5.10;;;1.60;;
46110;SDS011;31849;55.992;37.252;2023-03-01T07:28:43;4.25;;;1.48;;
46110;SDS011;31849;55.992;37.252;2023-03-01T07:33:48;5.00;;;1.58;;
46110;SDS011;31849;55.992;37.252;2023-03-01T07:43:57;6.38;;;2.40;;
46110;SDS011;31849;55.992;37.252;2023-03-01T07:54:07;5.57;;;1.40;;
46110;SDS011;31849;55.992;37.252;2023-03-01T07:59:11;3.40;;;1.45;;
46110;SDS011;31849;55.992;37.252;2023-03-01T08:04:15;3.92;;;1.45;;
46110;SDS011;31849;55.992;37.252;2023-03-01T08:14:22;4.35;;;1.73;;
46110;SDS011;31849;55.992;37.252;2023-03-01T08:19:27;4.13;;;1.80;;
46110;SDS011;31849;55.992;37.252;2023-03-01T08:24:30;5.40;;;1.50;;
46110;SDS011;31849;55.992;37.252;2023-03-01T08:29:34;5.18;;;1.90;;
46110;SDS011;31849;55.992;37.252;2023-03-01T08:34:39;4.73;;;1.70;;
46110;SDS011;31849;55.992;37.252;2023-03-01T08:39:43;4.25;;;1.77;;
46110;SDS011;31849;55.992;37.252;2023-03-01T08:44:46;4.97;;;1.63;;
46110;SDS011;31849;55.992;37.252;2023-03-01T08:49:51;3.85;;;1.60;;
46110;SDS011;31849;55.992;37.252;2023-03-01T08:54:54;4.18;;;2.08;;
46110;SDS011;31849;55.992;37.252;2023-03-01T08:59:58;3.23;;;1.50;;
46110;SDS011;31849;55.992;37.252;2023-03-01T09:05:04;4.40;;;1.80;;
46110;SDS011;31849;55.992;37.252;2023-03-01T09:10:08;3.33;;;1.77;;
46110;SDS011;31849;55.992;37.252;2023-03-01T09:15:12;7.20;;;1.73;;
46110;SDS011;31849;55.992;37.252;2023-03-01T09:20:18;5.47;;;1.83;;
46110;SDS011;31849;55.992;37.252;2023-03-01T09:25:21;4.15;;;1.30;;
46110;SDS011;31849;55.992;37.252;2023-03-01T09:30:25;5.65;;;1.63;;
46110;SDS011;31849;55.992;37.252;2023-03-01T09:35:30;4.18;;;1.20;;
46110;SDS011;31849;55.992;37.252;2023-03-01T09:45:38;3.40;;;1.23;;
46110;SDS011;31849;55.992;37.252;2023-03-01T09:50:47;4.45;;;1.38;;
46110;SDS011;31849;55.992;37.252;2023-03-01T09:55:54;3.30;;;1.30;;
46110;SDS011;31849;55.992;37.252;2023-03-01T10:01:04;3.35;;;1.30;;
46110;SDS011;31849;55.992;37.252;2023-03-01T10:06:23;5.80;;;1.30;;
46110;SDS011;31849;55.992;37.252;2023-03-01T10:11:36;4.70;;;1.23;;
46110;SDS011;31849;55.992;37.252;2023-03-01T10:16:43;3.40;;;1.30;;
46110;SDS011;31849;55.992;37.252;2023-03-01T10:21:53;5.35;;;1.60;;
46110;SDS011;31849;55.992;37.252;2023-03-01T10:26:57;3.38;;;1.35;;
46110;SDS011;31849;55.992;37.252;2023-03-01T10:32:04;3.90;;;1.58;;
46110;SDS011;31849;55.992;37.252;2023-03-01T10:37:11;3.55;;;1.20;;
46110;SDS011;31849;55.992;37.252;2023-03-01T10:42:19;5.47;;;1.88;;
46110;SDS011;31849;55.992;37.252;2023-03-01T10:47:26;3.60;;;1.63;;
46110;SDS011;31849;55.992;37.252;2023-03-01T10:52:34;5.53;;;1.50;;
46110;SDS011;31849;55.992;37.252;2023-03-01T10:57:39;2.47;;;1.10;;
46110;SDS011;31849;55.992;37.252;2023-03-01T11:02:43;5.30;;;1.85;;
46110;SDS011;31849;55.992;37.252;2023-03-01T11:07:52;3.38;;;1.20;;
46110;SDS011;31849;55.992;37.252;2023-03-01T11:13:08;3.53;;;0.98;;
46110;SDS011;31849;55.992;37.252;2023-03-01T11:18:20;4.97;;;1.00;;
46110;SDS011;31849;55.992;37.252;2023-03-01T11:23:38;5.43;;;2.15;;
46110;SDS011;31849;55.992;37.252;2023-03-01T11:28:44;2.08;;;0.93;;
46110;SDS011;31849;55.992;37.252;2023-03-01T11:33:54;3.50;;;1.00;;
46110;SDS011;31849;55.992;37.252;2023-03-01T11:39:13;2.13;;;0.90;;
46110;SDS011;31849;55.992;37.252;2023-03-01T11:44:28;4.47;;;1.05;;
46110;SDS011;31849;55.992;37.252;2023-03-01T12:06:15;2.92;;;0.70;;
46110;SDS011;31849;55.992;37.252;2023-03-01T12:11:41;3.25;;;1.00;;
46110;SDS011;31849;55.992;37.252;2023-03-01T12:17:12;3.00;;;0.90;;
46110;SDS011;31849;55.992;37.252;2023-03-01T12:22:29;5.50;;;1.38;;
46110;SDS011;31849;55.992;37.252;2023-03-01T12:27:40;3.47;;;1.02;;
46110;SDS011;31849;55.992;37.252;2023-03-01T12:33:00;3.10;;;0.90;;
46110;SDS011;31849;55.992;37.252;2023-03-01T12:38:19;4.15;;;1.15;;
46110;SDS011;31849;55.992;37.252;2023-03-01T12:43:41;3.70;;;1.40;;
46110;SDS011;31849;55.992;37.252;2023-03-01T12:48:56;3.20;;;1.00;;
46110;SDS011;31849;55.992;37.252;2023-03-01T12:54:11;3.60;;;1.00;;
46110;SDS011;31849;55.992;37.252;2023-03-01T12:59:20;4.25;;;1.60;;
46110;SDS011;31849;55.992;37.252;2023-03-01T13:04:33;3.28;;;1.00;;
46110;SDS011;31849;55.992;37.252;2023-03-01T13:09:45;3.15;;;1.23;;
46110;SDS011;31849;55.992;37.252;2023-03-01T13:14:56;3.55;;;1.00;;
46110;SDS011;31849;55.992;37.252;2023-03-01T13:19:59;2.78;;;1.00;;
46110;SDS011;31849;55.992;37.252;2023-03-01T13:25:12;3.20;;;0.90;;
46110;SDS011;31849;55.992;37.252;2023-03-01T13:35:45;3.25;;;1.05;;
46110;SDS011;31849;55.992;37.252;2023-03-01T13:40:58;2.53;;;0.90;;
46110;SDS011;31849;55.992;37.252;2023-03-01T13:46:09;6.23;;;0.87;;
46110;SDS011;31849;55.992;37.252;2023-03-01T13:56:25;4.43;;;1.38;;
46110;SDS011;31849;55.992;37.252;2023-03-01T14:01:33;2.75;;;0.98;;
46110;SDS011;31849;55.992;37.252;2023-03-01T14:06:38;3.03;;;1.20;;
46110;SDS011;31849;55.992;37.252;2023-03-01T14:11:54;3.97;;;1.02;;
46110;SDS011;31849;55.992;37.252;2023-03-01T14:17:20;2.15;;;0.70;;
46110;SDS011;31849;55.992;37.252;2023-03-01T14:22:42;2.97;;;0.88;;
46110;SDS011;31849;55.992;37.252;2023-03-01T14:27:51;3.88;;;1.08;;
46110;SDS011;31849;55.992;37.252;2023-03-01T14:33:00;2.90;;;0.80;;
46110;SDS011;31849;55.992;37.252;2023-03-01T14:38:05;3.22;;;0.90;;
46110;SDS011;31849;55.992;37.252;2023-03-01T14:43:09;4.22;;;0.93;;
46110;SDS011;31849;55.992;37.252;2023-03-01T14:48:16;3.85;;;1.10;;
46110;SDS011;31849;55.992;37.252;2023-03-01T14:53:21;2.80;;;0.93;;
46110;SDS011;31849;55.992;37.252;2023-03-01T14:58:27;3.72;;;0.88;;
46110;SDS011;31849;55.992;37.252;2023-03-01T15:03:32;3.75;;;0.90;;
46110;SDS011;31849;55.992;37.252;2023-03-01T15:08:40;3.55;;;1.00;;
46110;SDS011;31849;55.992;37.252;2023-03-01T15:13:47;3.55;;;0.90;;
46110;SDS011;31849;55.992;37.252;2023-03-01T15:18:52;3.57;;;0.80;;
46110;SDS011;31849;55.992;37.252;2023-03-01T15:24:05;4.00;;;0.90;;
46110;SDS011;31849;55.992;37.252;2023-03-01T15:29:22;2.22;;;1.00;;
46110;SDS011;31849;55.992;37.252;2023-03-01T15:34:34;3.90;;;1.00;;
46110;SDS011;31849;55.992;37.252;2023-03-01T15:39:40;2.90;;;0.85;;
46110;SDS011;31849;55.992;37.252;2023-03-01T15:44:45;3.20;;;1.10;;
46110;SDS011;31849;55.992;37.252;2023-03-01T15:49:52;4.05;;;1.00;;
46110;SDS011;31849;55.992;37.252;2023-03-01T15:54:58;2.85;;;0.90;;
46110;SDS011;31849;55.992;37.252;2023-03-01T16:00:05;3.03;;;0.93;;
46110;SDS011;31849;55.992;37.252;2023-03-01T16:05:17;4.03;;;1.30;;
46110;SDS011;31849;55.992;37.252;2023-03-01T16:10:23;4.03;;;1.25;;
46110;SDS011;31849;55.992;37.252;2023-03-01T16:15:28;2.43;;;0.80;;
46110;SDS011;31849;55.992;37.252;2023-03-01T16:20:35;2.83;;;1.00;;
46110;SDS011;31849;55.992;37.252;2023-03-01T16:25:39;2.63;;;0.90;;
46110;SDS011;31849;55.992;37.252;2023-03-01T16:30:45;4.05;;;1.20;;
46110;SDS011;31849;55.992;37.252;2023-03-01T16:35:51;5.07;;;1.10;;
46110;SDS011;31849;55.992;37.252;2023-03-01T16:45:58;4.57;;;1.00;;
46110;SDS011;31849;55.992;37.252;2023-03-01T16:51:03;4.65;;;1.73;;
46110;SDS011;31849;55.992;37.252;2023-03-01T16:56:08;2.67;;;0.73;;
46110;SDS011;31849;55.992;37.252;2023-03-01T17:01:14;5.43;;;1.10;;
46110;SDS011;31849;55.992;37.252;2023-03-01T17:06:20;2.35;;;0.90;;
46110;SDS011;31849;55.992;37.252;2023-03-01T17:11:26;3.28;;;1.00;;
46110;SDS011;31849;55.992;37.252;2023-03-01T17:16:30;3.15;;;0.90;;
46110;SDS011;31849;55.992;37.252;2023-03-01T17:21:35;3.30;;;0.93;;
46110;SDS011;31849;55.992;37.252;2023-03-01T17:26:39;3.90;;;1.20;;
46110;SDS011;31849;55.992;37.252;2023-03-01T17:31:43;3.40;;;1.10;;
46110;SDS011;31849;55.992;37.252;2023-03-01T17:36:48;3.78;;;0.93;;
46110;SDS011;31849;55.992;37.252;2023-03-01T17:41:52;3.33;;;0.93;;
46110;SDS011;31849;55.992;37.252;2023-03-01T17:46:56;3.05;;;1.00;;
46110;SDS011;31849;55.992;37.252;2023-03-01T17:52:01;3.30;;;0.93;;
46110;SDS011;31849;55.992;37.252;2023-03-01T17:57:05;4.07;;;1.27;;
46110;SDS011;31849;55.992;37.252;2023-03-01T18:02:10;3.70;;;1.00;;
46110;SDS011;31849;55.992;37.252;2023-03-01T18:07:16;3.28;;;1.15;;
46110;SDS011;31849;55.992;37.252;2023-03-01T18:12:19;4.38;;;1.13;;
46110;SDS011;31849;55.992;37.252;2023-03-01T18:17:23;3.08;;;0.80;;
46110;SDS011;31849;55.992;37.252;2023-03-01T18:22:29;4.47;;;1.35;;
46110;SDS011;31849;55.992;37.252;2023-03-01T18:27:33;3.95;;;1.20;;
46110;SDS011;31849;55.992;37.252;2023-03-01T18:32:37;4.32;;;1.25;;
46110;SDS011;31849;55.992;37.252;2023-03-01T18:37:42;3.20;;;0.97;;
46110;SDS011;31849;55.992;37.252;2023-03-01T18:47:49;5.55;;;1.02;;
46110;SDS011;31849;55.992;37.252;2023-03-01T18:52:54;5.18;;;1.38;;
46110;SDS011;31849;55.992;37.252;2023-03-01T18:57:58;4.93;;;1.38;;
46110;SDS011;31849;55.992;37.252;2023-03-01T19:03:01;2.03;;;0.90;;
46110;SDS011;31849;55.992;37.252;2023-03-01T19:08:06;4.80;;;1.10;;
46110;SDS011;31849;55.992;37.252;2023-03-01T19:18:13;4.32;;;1.83;;
46110;SDS011;31849;55.992;37.252;2023-03-01T19:23:18;4.80;;;0.90;;
46110;SDS011;31849;55.992;37.252;2023-03-01T19:33:24;7.05;;;1.20;;
46110;SDS011;31849;55.992;37.252;2023-03-01T19:38:29;3.28;;;1.17;;
46110;SDS011;31849;55.992;37.252;2023-03-01T19:43:33;5.00;;;1.20;;
46110;SDS011;31849;55.992;37.252;2023-03-01T19:48:37;3.17;;;0.98;;
46110;SDS011;31849;55.992;37.252;2023-03-01T19:53:43;3.35;;;0.90;;
46110;SDS011;31849;55.992;37.252;2023-03-01T19:58:46;3.90;;;0.90;;
46110;SDS011;31849;55.992;37.252;2023-03-01T20:03:51;4.68;;;1.23;;
46110;SDS011;31849;55.992;37.252;2023-03-01T20:08:55;4.13;;;1.48;;
46110;SDS011;31849;55.992;37.252;2023-03-01T20:14:06;4.72;;;1.42;;
46110;SDS011;31849;55.992;37.252;2023-03-01T20:19:12;4.65;;;1.30;;
46110;SDS011;31849;55.992;37.252;2023-03-01T20:24:17;5.22;;;1.00;;
46110;SDS011;31849;55.992;37.252;2023-03-01T20:29:21;3.42;;;1.15;;
46110;SDS011;31849;55.992;37.252;2023-03-01T20:34:24;3.60;;;1.55;;
46110;SDS011;31849;55.992;37.252;2023-03-01T20:39:29;5.18;;;1.20;;
46110;SDS011;31849;55.992;37.252;2023-03-01T20:49:36;3.90;;;1.20;;
46110;SDS011;31849;55.992;37.252;2023-03-01T20:54:41;7.68;;;1.60;;
46110;SDS011;31849;55.992;37.252;2023-03-01T20:59:45;7.07;;;1.50;;
46110;SDS011;31849;55.992;37.252;2023-03-01T21:04:48;4.20;;;1.23;;
46110;SDS011;31849;55.992;37.252;2023-03-01T21:09:53;3.53;;;1.23;;
46110;SDS011;31849;55.992;37.252;2023-03-01T21:14:57;5.82;;;1.63;;
46110;SDS011;31849;55.992;37.252;2023-03-01T21:20:00;5.32;;;1.58;;
46110;SDS011;31849;55.992;37.252;2023-03-01T21:25:06;5.90;;;1.33;;
46110;SDS011;31849;55.992;37.252;2023-03-01T21:30:10;7.00;;;1.40;;
46110;SDS011;31849;55.992;37.252;2023-03-01T21:35:15;5.65;;;1.35;;
46110;SDS011;31849;55.992;37.252;2023-03-01T21:40:20;6.22;;;1.38;;
46110;SDS011;31849;55.992;37.252;2023-03-01T21:50:26;4.43;;;1.50;;
46110;SDS011;31849;55.992;37.252;2023-03-01T21:55:31;5.53;;;1.38;;
46110;SDS011;31849;55.992;37.252;2023-03-01T22:00:35;4.90;;;1.38;;
46110;SDS011;31849;55.992;37.252;2023-03-01T22:05:40;4.55;;;1.40;;
46110;SDS011;31849;55.992;37.252;2023-03-01T22:10:45;4.93;;;1.42;;
46110;SDS011;31849;55.992;37.252;2023-03-01T22:20:51;4.43;;;1.80;;
46110;SDS011;31849;55.992;37.252;2023-03-01T22:25:57;3.67;;;1.20;;
46110;SDS011;31849;55.992;37.252;2023-03-01T22:36:05;4.43;;;1.40;;
46110;SDS011;31849;55.992;37.252;2023-03-01T22:41:10;6.28;;;1.25;;
46110;SDS011;31849;55.992;37.252;2023-03-01T22:46:15;4.75;;;1.25;;
46110;SDS011;31849;55.992;37.252;2023-03-01T22:51:21;2.70;;;1.10;;
46110;SDS011;31849;55.992;37.252;2023-03-01T22:56:29;4.47;;;1.10;;
46110;SDS011;31849;55.992;37.252;2023-03-01T23:01:34;4.50;;;1.30;;
46110;SDS011;31849;55.992;37.252;2023-03-01T23:06:38;6.30;;;1.25;;
46110;SDS011;31849;55.992;37.252;2023-03-01T23:11:52;5.75;;;1.35;;
46110;SDS011;31849;55.992;37.252;2023-03-01T23:16:57;5.65;;;1.10;;
46110;SDS011;31849;55.992;37.252;2023-03-01T23:22:01;4.40;;;1.10;;
46110;SDS011;31849;55.992;37.252;2023-03-01T23:27:06;5.05;;;1.40;;
46110;SDS011;31849;55.992;37.252;2023-03-01T23:32:10;3.35;;;1.30;;
46110;SDS011;31849;55.992;37.252;2023-03-01T23:37:14;3.78;;;1.40;;
46110;SDS011;31849;55.992;37.252;2023-03-01T23:42:18;4.85;;;1.48;;
46110;SDS011;31849;55.992;37.252;2023-03-01T23:52:25;3.25;;;1.38;;
46110;SDS011;31849;55.992;37.252;2023-03-01T23:57:30;3.42;;;1.50;;
